Current Conditions
Clear
Conditions



Pressure
1007.79 (hPa) - 29.76 (inHG)
Visibility

9.7 (km) - 6.0 (miles)
   Temperature
5  °C
41°F
3  °C
Dewpoint
87  %
 Humidity
   Wind Speed
3  km/h
2  kts
2  mph
0.9  m/s
   Wind Direction
Calm
Due North
   Airport Data
LHPR
Location Győr-Pér International Airport 10 km (6.22 mi)
Metar :LHPR 192315Z AUTO VRB02KT CAVOK 05/03 Q1008
Sat 20th April 01:15 am
   Raw Metar Info
Raw METAR is the most common format in the world for the transmission of observational weather data. It is highly standardized through the International Civil Aviation Organization (ICAO), which allows it to be understood throughout most of the world.
   API Info
Data Provided by
https://www.checkwx.com/weather/LHPR
   © Info
CSS/SVG/PHP scripts were developed by weather34.com for use in the weather34 template © 2015-2024

Guide Info provided by Metar-Wikipedia